createdAt,value
2017-04-15T00:00:10.621Z,1010.52
2017-04-15T00:01:10.709Z,1010.47
2017-04-15T00:02:10.675Z,1010.49
2017-04-15T00:03:10.693Z,1010.5
2017-04-15T00:04:10.735Z,1010.48
2017-04-15T00:05:10.766Z,1010.47
2017-04-15T00:06:10.798Z,1010.45
2017-04-15T00:07:10.826Z,1010.44
2017-04-15T00:08:10.854Z,1010.42
2017-04-15T00:09:10.889Z,1010.38
2017-04-15T00:10:10.914Z,1010.41
2017-04-15T00:11:10.945Z,1010.33
2017-04-15T00:12:10.974Z,1010.35
2017-04-15T00:13:10.997Z,1010.4
2017-04-15T00:14:11.033Z,1010.4
2017-04-15T00:15:11.066Z,1010.37
2017-04-15T00:16:11.093Z,1010.32
2017-04-15T00:17:11.121Z,1010.31
2017-04-15T00:18:11.152Z,1010.32
2017-04-15T00:19:11.180Z,1010.32
2017-04-15T00:20:11.204Z,1010.34
2017-04-15T00:21:11.238Z,1010.3
2017-04-15T00:22:11.274Z,1010.3
2017-04-15T00:23:11.301Z,1010.24
2017-04-15T00:24:11.333Z,1010.3
2017-04-15T00:25:11.360Z,1010.31
2017-04-15T00:26:11.376Z,1010.27
2017-04-15T00:27:11.419Z,1010.24
2017-04-15T00:28:11.449Z,1010.25
2017-04-15T00:29:11.479Z,1010.27
2017-04-15T00:30:11.508Z,1010.26
2017-04-15T00:31:11.537Z,1010.24
2017-04-15T00:32:11.566Z,1010.26
2017-04-15T00:33:11.600Z,1010.29
2017-04-15T00:34:11.630Z,1010.23
2017-04-15T00:35:11.754Z,1010.22
2017-04-15T00:36:11.685Z,1010.22
2017-04-15T00:37:11.703Z,1010.21
2017-04-15T00:38:11.745Z,1010.22
2017-04-15T00:39:11.774Z,1010.2
2017-04-15T00:40:11.806Z,1010.23
2017-04-15T00:41:11.833Z,1010.23
2017-04-15T00:42:11.870Z,1010.24
2017-04-15T00:43:11.893Z,1010.19
2017-04-15T00:44:11.920Z,1010.17
2017-04-15T00:45:11.949Z,1010.14
2017-04-15T00:46:11.982Z,1010.19
2017-04-15T00:47:12.002Z,1010.13
2017-04-15T00:48:12.039Z,1010.12
2017-04-15T00:49:12.073Z,1010.17
2017-04-15T00:50:12.202Z,1010.12
2017-04-15T00:51:12.129Z,1010.13
2017-04-15T00:52:12.160Z,1010.17
2017-04-15T00:53:12.190Z,1010.14
2017-04-15T00:54:12.214Z,1010.11
2017-04-15T00:55:12.248Z,1010.18
2017-04-15T00:56:12.280Z,1010.2
2017-04-15T00:57:12.306Z,1010.2
2017-04-15T00:58:12.336Z,1010.17
2017-04-15T00:59:12.374Z,1010.15
2017-04-15T01:00:12.409Z,1010.17
2017-04-15T01:01:12.413Z,1010.17
2017-04-15T01:02:12.452Z,1010.13
2017-04-15T01:03:12.484Z,1010.09
2017-04-15T01:04:12.517Z,1010.03
2017-04-15T01:05:12.643Z,1010.01
2017-04-15T01:06:12.570Z,1010.09
2017-04-15T01:07:12.600Z,1010.05
2017-04-15T01:08:12.633Z,1009.98
2017-04-15T01:09:12.658Z,1010
2017-04-15T01:10:12.692Z,1010
2017-04-15T01:11:12.718Z,1009.97
2017-04-15T01:12:12.747Z,1009.98
2017-04-15T01:13:12.777Z,1009.94
2017-04-15T01:14:12.812Z,1009.94
2017-04-15T01:15:13.191Z,1009.94
2017-04-15T01:16:12.865Z,1009.86
2017-04-15T01:17:12.899Z,1009.86
2017-04-15T01:18:12.928Z,1009.86
2017-04-15T01:19:12.957Z,1009.84
2017-04-15T01:20:12.987Z,1009.83
2017-04-15T01:21:13.016Z,1009.85
2017-04-15T01:22:13.045Z,1009.83
2017-04-15T01:23:13.073Z,1009.85
2017-04-15T01:24:13.106Z,1009.86
2017-04-15T01:25:13.132Z,1009.85
2017-04-15T01:26:13.169Z,1009.85
2017-04-15T01:27:13.190Z,1009.79
2017-04-15T01:28:13.222Z,1009.8
2017-04-15T01:29:13.254Z,1009.76
2017-04-15T01:30:13.278Z,1009.78
2017-04-15T01:31:13.317Z,1009.79
2017-04-15T01:32:13.347Z,1009.81
2017-04-15T01:33:13.372Z,1009.77
2017-04-15T01:34:13.402Z,1009.76
2017-04-15T01:35:13.433Z,1009.76
2017-04-15T01:36:13.457Z,1009.77
2017-04-15T01:37:13.488Z,1009.69
2017-04-15T01:38:13.517Z,1009.7
2017-04-15T01:39:13.547Z,1009.71
2017-04-15T01:40:13.577Z,1009.73
2017-04-15T01:41:13.606Z,1009.67
2017-04-15T01:42:13.635Z,1009.67
2017-04-15T01:43:13.652Z,1009.69
2017-04-15T01:44:13.698Z,1009.63
2017-04-15T01:45:13.728Z,1009.64
2017-04-15T01:46:13.754Z,1009.65
2017-04-15T01:47:13.786Z,1009.62
2017-04-15T01:48:13.813Z,1009.65
2017-04-15T01:49:13.843Z,1009.63
2017-04-15T01:50:13.874Z,1009.61
2017-04-15T01:51:13.908Z,1009.63
2017-04-15T01:52:13.934Z,1009.64
2017-04-15T01:53:13.967Z,1009.62
2017-04-15T01:54:14.007Z,1009.65
2017-04-15T01:55:14.024Z,1009.61
2017-04-15T01:56:14.052Z,1009.64
2017-04-15T01:57:14.082Z,1009.58
2017-04-15T01:58:14.109Z,1009.67
2017-04-15T01:59:14.139Z,1009.64
2017-04-15T02:00:14.174Z,1009.62
2017-04-15T02:01:14.198Z,1009.63
2017-04-15T02:02:14.232Z,1009.58
2017-04-15T02:03:14.265Z,1009.57
2017-04-15T02:04:14.287Z,1009.59
2017-04-15T02:05:14.333Z,1009.59
2017-04-15T02:06:14.349Z,1009.6
2017-04-15T02:07:14.379Z,1009.54
2017-04-15T02:08:14.407Z,1009.56
2017-04-15T02:09:14.440Z,1009.54
2017-04-15T02:10:14.467Z,1009.59
2017-04-15T02:11:14.497Z,1009.52
2017-04-15T02:12:14.531Z,1009.49
2017-04-15T02:13:14.557Z,1009.49
2017-04-15T02:14:14.586Z,1009.45
2017-04-15T02:15:14.615Z,1009.44
2017-04-15T02:16:14.646Z,1009.47
2017-04-15T02:17:14.672Z,1009.44
2017-04-15T02:18:14.705Z,1009.42
2017-04-15T02:19:14.734Z,1009.45
2017-04-15T02:20:14.751Z,1009.46
2017-04-15T02:21:14.790Z,1009.35
2017-04-15T02:22:14.826Z,1009.38
2017-04-15T02:23:14.853Z,1009.35
2017-04-15T02:24:14.883Z,1009.37
2017-04-15T02:25:14.910Z,1009.38
2017-04-15T02:26:14.936Z,1009.33
2017-04-15T02:27:14.970Z,1009.38
2017-04-15T02:28:15.003Z,1009.35
2017-04-15T02:29:15.027Z,1009.33
2017-04-15T02:30:15.059Z,1009.29
2017-04-15T02:31:15.088Z,1009.26
2017-04-15T02:32:15.120Z,1009.29
2017-04-15T02:33:15.146Z,1009.25
2017-04-15T02:34:15.176Z,1009.24
2017-04-15T02:35:15.204Z,1009.21
2017-04-15T02:36:15.238Z,1009.16
2017-04-15T02:37:15.265Z,1009.18
2017-04-15T02:38:15.309Z,1009.19
2017-04-15T02:39:15.326Z,1009.18
2017-04-15T02:40:15.341Z,1009.11
2017-04-15T02:41:15.383Z,1009.1
2017-04-15T02:42:15.411Z,1009.08
2017-04-15T02:43:15.430Z,1009.1
2017-04-15T02:44:15.470Z,1009.05
2017-04-15T02:45:15.503Z,1009.01
2017-04-15T02:46:15.528Z,1008.99
2017-04-15T02:47:15.556Z,1008.97
2017-04-15T02:48:15.586Z,1008.96
2017-04-15T02:49:15.623Z,1008.97
2017-04-15T02:50:15.653Z,1009.07
2017-04-15T02:51:15.674Z,1009.03
2017-04-15T02:52:15.713Z,1009.05
2017-04-15T02:53:15.733Z,1009.04
2017-04-15T02:54:15.764Z,1009.13
2017-04-15T02:55:15.896Z,1009.11
2017-04-15T02:56:15.822Z,1009.1
2017-04-15T02:57:15.853Z,1009.13
2017-04-15T02:58:15.883Z,1009.14
2017-04-15T02:59:15.910Z,1009.14
2017-04-15T03:00:15.930Z,1009.16
2017-04-15T03:01:15.967Z,1009.15
2017-04-15T03:02:15.997Z,1009.18
2017-04-15T03:03:16.029Z,1009.14
2017-04-15T03:04:16.059Z,1009.12
2017-04-15T03:05:16.087Z,1009.15
2017-04-15T03:06:16.111Z,1009.16
2017-04-15T03:07:16.136Z,1009.17
2017-04-15T03:08:16.173Z,1009.12
2017-04-15T03:09:16.202Z,1009.13
2017-04-15T03:10:16.234Z,1009.12
2017-04-15T03:11:16.263Z,1009.11
2017-04-15T03:12:16.289Z,1009.07
2017-04-15T03:13:16.321Z,1009.08
2017-04-15T03:14:16.349Z,1009.08
2017-04-15T03:15:16.379Z,1009.04
2017-04-15T03:16:16.405Z,1009.06
2017-04-15T03:17:16.436Z,1009.04
2017-04-15T03:18:16.465Z,1009.02
2017-04-15T03:19:16.495Z,1009.05
2017-04-15T03:20:16.525Z,1009.04
2017-04-15T03:21:16.550Z,1009.01
2017-04-15T03:22:16.581Z,1009.04
2017-04-15T03:23:16.609Z,1009.01
2017-04-15T03:24:16.630Z,1009.03
2017-04-15T03:25:16.669Z,1008.96
2017-04-15T03:26:16.701Z,1008.99
2017-04-15T03:27:16.733Z,1008.95
2017-04-15T03:28:16.753Z,1008.97
2017-04-15T03:29:16.786Z,1008.94
2017-04-15T03:30:16.812Z,1008.83
2017-04-15T03:31:16.828Z,1008.82
2017-04-15T03:32:16.870Z,1008.83
2017-04-15T03:33:16.903Z,1008.8
2017-04-15T03:34:16.930Z,1008.9
2017-04-15T03:35:16.960Z,1008.85
2017-04-15T03:36:16.985Z,1008.9
2017-04-15T03:37:17.018Z,1008.93
2017-04-15T03:38:17.044Z,1008.92
2017-04-15T03:39:17.072Z,1008.92
2017-04-15T03:40:17.101Z,1008.93
2017-04-15T03:41:17.132Z,1008.88
2017-04-15T03:42:17.159Z,1008.97
2017-04-15T03:43:17.186Z,1008.93
2017-04-15T03:44:17.221Z,1008.94
2017-04-15T03:45:17.248Z,1008.92
2017-04-15T03:46:17.273Z,1008.91
2017-04-15T03:47:17.305Z,1008.98
2017-04-15T03:48:17.334Z,1008.96
2017-04-15T03:49:17.363Z,1008.97
2017-04-15T03:50:17.388Z,1009
2017-04-15T03:51:17.419Z,1008.96
2017-04-15T03:52:17.443Z,1008.95
2017-04-15T03:53:17.474Z,1008.94
2017-04-15T03:54:17.505Z,1008.91
2017-04-15T03:55:17.534Z,1008.91
2017-04-15T03:56:17.560Z,1008.88
2017-04-15T03:57:17.589Z,1008.9
2017-04-15T03:58:17.620Z,1008.88
2017-04-15T03:59:17.646Z,1008.87
2017-04-15T04:00:17.831Z,1008.86
2017-04-15T04:01:17.706Z,1008.82
2017-04-15T04:02:17.737Z,1008.89
2017-04-15T04:03:17.763Z,1008.78
2017-04-15T04:04:17.792Z,1008.79
2017-04-15T04:05:17.820Z,1008.82
2017-04-15T04:06:17.840Z,1008.74
2017-04-15T04:07:17.878Z,1008.76
2017-04-15T04:08:17.905Z,1008.77
2017-04-15T04:09:17.935Z,1008.79
2017-04-15T04:10:17.963Z,1008.75
2017-04-15T04:11:17.991Z,1008.74
2017-04-15T04:12:18.022Z,1008.68
2017-04-15T04:13:18.047Z,1008.75
2017-04-15T04:14:18.077Z,1008.73
2017-04-15T04:15:18.104Z,1008.7
2017-04-15T04:16:18.134Z,1008.73
2017-04-15T04:17:18.161Z,1008.67
2017-04-15T04:18:18.188Z,1008.68
2017-04-15T04:19:18.222Z,1008.61
2017-04-15T04:20:18.246Z,1008.64
2017-04-15T04:21:18.276Z,1008.65
2017-04-15T04:22:18.305Z,1008.56
2017-04-15T04:23:18.331Z,1008.65
2017-04-15T04:24:18.360Z,1008.56
2017-04-15T04:25:18.390Z,1008.61
2017-04-15T04:26:18.416Z,1008.59
2017-04-15T04:27:18.444Z,1008.59
2017-04-15T04:28:18.475Z,1008.65
2017-04-15T04:29:18.503Z,1008.61
2017-04-15T04:30:18.530Z,1008.59
2017-04-15T04:31:18.562Z,1008.58
2017-04-15T04:32:18.592Z,1008.59
2017-04-15T04:33:18.619Z,1008.55
2017-04-15T04:34:18.645Z,1008.56
2017-04-15T04:35:18.671Z,1008.54
2017-04-15T04:36:18.704Z,1008.55
2017-04-15T04:37:18.731Z,1008.5
2017-04-15T04:38:18.761Z,1008.52
2017-04-15T04:39:18.786Z,1008.49
2017-04-15T04:40:19.066Z,1008.46
2017-04-15T04:41:18.845Z,1008.45
2017-04-15T04:42:18.873Z,1008.44
2017-04-15T04:43:18.902Z,1008.49
2017-04-15T04:44:18.930Z,1008.46
2017-04-15T04:45:18.957Z,1008.44
2017-04-15T04:46:18.988Z,1008.37
2017-04-15T04:47:19.020Z,1008.38
2017-04-15T04:48:19.047Z,1008.4
2017-04-15T04:49:19.072Z,1008.4
2017-04-15T04:50:19.104Z,1008.4
2017-04-15T04:51:19.132Z,1008.34
2017-04-15T04:52:19.165Z,1008.38
2017-04-15T04:53:19.190Z,1008.4
2017-04-15T04:54:19.208Z,1008.37
2017-04-15T04:55:19.248Z,1008.39
2017-04-15T04:56:19.275Z,1008.33
2017-04-15T04:57:19.308Z,1008.34
2017-04-15T04:58:19.331Z,1008.34
2017-04-15T04:59:19.363Z,1008.32
2017-04-15T05:00:19.390Z,1008.31
2017-04-15T05:01:19.422Z,1008.28
2017-04-15T05:02:19.450Z,1008.31
2017-04-15T05:03:19.477Z,1008.23
2017-04-15T05:04:19.506Z,1008.21
2017-04-15T05:05:19.535Z,1008.19
2017-04-15T05:06:19.567Z,1008.23
2017-04-15T05:07:19.595Z,1008.16
2017-04-15T05:08:19.625Z,1008.19
2017-04-15T05:09:19.648Z,1008.14
2017-04-15T05:10:19.682Z,1008.16
2017-04-15T05:11:19.712Z,1008.22
2017-04-15T05:12:19.743Z,1008.17
2017-04-15T05:13:19.772Z,1008.09
2017-04-15T05:14:19.792Z,1008.13
2017-04-15T05:15:19.832Z,1008.09
2017-04-15T05:16:19.859Z,1008.06
2017-04-15T05:17:19.889Z,1008.13
2017-04-15T05:18:19.916Z,1008.05
2017-04-15T05:19:19.946Z,1008.08
2017-04-15T05:20:19.976Z,1008.02
2017-04-15T05:21:20.006Z,1008.05
2017-04-15T05:22:20.040Z,1008.03
2017-04-15T05:23:20.063Z,1008.09
2017-04-15T05:24:20.093Z,1008.08
2017-04-15T05:25:20.125Z,1008.01
2017-04-15T05:26:20.138Z,1007.98
2017-04-15T05:27:20.183Z,1007.94
2017-04-15T05:28:20.213Z,1007.88
2017-04-15T05:29:20.243Z,1007.91
2017-04-15T05:30:20.269Z,1007.91
2017-04-15T05:31:20.301Z,1007.93
2017-04-15T05:32:20.335Z,1007.88
2017-04-15T05:33:20.363Z,1007.89
2017-04-15T05:34:20.392Z,1007.9
2017-04-15T05:35:20.422Z,1007.87
2017-04-15T05:36:20.442Z,1007.84
2017-04-15T05:37:20.480Z,1007.84
2017-04-15T05:38:20.512Z,1007.81
2017-04-15T05:39:20.541Z,1007.83
2017-04-15T05:40:20.567Z,1007.84
2017-04-15T05:41:20.599Z,1007.8
2017-04-15T05:42:20.629Z,1007.76
2017-04-15T05:43:20.662Z,1007.71
2017-04-15T05:44:20.691Z,1007.75
2017-04-15T05:45:20.720Z,1007.7
2017-04-15T05:46:20.747Z,1007.77
2017-04-15T05:47:20.782Z,1007.69
2017-04-15T05:48:20.811Z,1007.69
2017-04-15T05:49:20.838Z,1007.67
2017-04-15T05:50:20.871Z,1007.63
2017-04-15T05:51:20.898Z,1007.69
2017-04-15T05:52:20.932Z,1007.69
2017-04-15T05:53:20.963Z,1007.69
2017-04-15T05:54:20.989Z,1007.65
2017-04-15T05:55:21.035Z,1007.64
2017-04-15T05:56:21.048Z,1007.63
2017-04-15T05:57:21.080Z,1007.59
2017-04-15T05:58:21.108Z,1007.57
2017-04-15T05:59:21.146Z,1007.59
2017-04-15T06:00:21.317Z,1007.56
2017-04-15T06:01:21.202Z,1007.53
2017-04-15T06:02:21.231Z,1007.51
2017-04-15T06:03:21.262Z,1007.48
2017-04-15T06:04:21.286Z,1007.51
2017-04-15T06:05:21.319Z,1007.52
2017-04-15T06:06:21.347Z,1007.49
2017-04-15T06:07:21.380Z,1007.5
2017-04-15T06:08:21.407Z,1007.46
2017-04-15T06:09:21.438Z,1007.44
2017-04-15T06:10:21.469Z,1007.47
2017-04-15T06:11:21.500Z,1007.46
2017-04-15T06:12:21.532Z,1007.48
2017-04-15T06:13:21.562Z,1007.42
2017-04-15T06:14:21.589Z,1007.49
2017-04-15T06:15:21.616Z,1007.46
2017-04-15T06:16:21.650Z,1007.47
2017-04-15T06:17:21.681Z,1007.5
2017-04-15T06:18:21.709Z,1007.43
2017-04-15T06:19:21.742Z,1007.47
2017-04-15T06:20:21.767Z,1007.45
2017-04-15T06:21:21.797Z,1007.46
2017-04-15T06:22:21.830Z,1007.48
2017-04-15T06:23:21.864Z,1007.48
2017-04-15T06:24:21.888Z,1007.46
2017-04-15T06:25:21.921Z,1007.48
2017-04-15T06:26:21.947Z,1007.44
2017-04-15T06:27:21.979Z,1007.47
2017-04-15T06:28:22.008Z,1007.47
2017-04-15T06:29:22.037Z,1007.49
2017-04-15T06:30:22.467Z,1007.42
2017-04-15T06:31:22.099Z,1007.44
2017-04-15T06:32:22.131Z,1007.44
2017-04-15T06:33:22.163Z,1007.41
2017-04-15T06:34:22.187Z,1007.4
2017-04-15T06:35:22.216Z,1007.41
2017-04-15T06:36:22.268Z,1007.37
2017-04-15T06:37:22.268Z,1007.43
2017-04-15T06:38:22.306Z,1007.39
2017-04-15T06:39:22.339Z,1007.35
2017-04-15T06:40:22.368Z,1007.36
2017-04-15T06:41:22.396Z,1007.39
2017-04-15T06:42:22.424Z,1007.37
2017-04-15T06:43:22.453Z,1007.38
2017-04-15T06:44:22.483Z,1007.4
2017-04-15T06:45:22.515Z,1007.37
2017-04-15T06:46:22.543Z,1007.41
2017-04-15T06:47:22.575Z,1007.4
2017-04-15T06:48:22.605Z,1007.37
2017-04-15T06:49:22.639Z,1007.38
2017-04-15T06:50:22.662Z,1007.43
2017-04-15T06:51:22.693Z,1007.35
2017-04-15T06:52:22.725Z,1007.38
2017-04-15T06:53:22.743Z,1007.32
2017-04-15T06:54:22.784Z,1007.36
2017-04-15T06:55:22.815Z,1007.4
2017-04-15T06:56:22.842Z,1007.39
2017-04-15T06:57:22.870Z,1007.34
2017-04-15T06:58:22.902Z,1007.32
2017-04-15T06:59:22.929Z,1007.29
2017-04-15T07:00:23.019Z,1007.3
2017-04-15T07:01:22.993Z,1007.24
2017-04-15T07:02:23.024Z,1007.21
2017-04-15T07:03:23.051Z,1007.18
2017-04-15T07:04:23.078Z,1007.12
2017-04-15T07:05:23.109Z,1007.03
2017-04-15T07:06:23.143Z,1007.02
2017-04-15T07:07:23.173Z,1006.92
2017-04-15T07:08:23.205Z,1006.91
2017-04-15T07:09:23.228Z,1006.97
2017-04-15T07:10:23.257Z,1006.92
2017-04-15T07:11:23.281Z,1006.84
2017-04-15T07:12:23.319Z,1006.86
2017-04-15T07:13:23.351Z,1006.85
2017-04-15T07:14:23.382Z,1006.9
2017-04-15T07:15:23.400Z,1006.78
2017-04-15T07:16:23.442Z,1006.8
2017-04-15T07:17:23.472Z,1006.68
2017-04-15T07:18:23.497Z,1006.67
2017-04-15T07:19:23.529Z,1006.73
2017-04-15T07:20:23.556Z,1006.72
2017-04-15T07:21:23.589Z,1006.72
2017-04-15T07:22:23.619Z,1006.73
2017-04-15T07:23:23.650Z,1006.76
2017-04-15T07:24:23.684Z,1006.69
2017-04-15T07:25:23.709Z,1006.69
2017-04-15T07:26:23.741Z,1006.72
2017-04-15T07:27:23.770Z,1006.72
2017-04-15T07:28:23.817Z,1006.66
2017-04-15T07:29:23.828Z,1006.7
2017-04-15T07:30:23.858Z,1006.65
2017-04-15T07:31:23.889Z,1006.63
2017-04-15T07:32:23.917Z,1006.6
2017-04-15T07:33:23.952Z,1006.61
2017-04-15T07:34:23.979Z,1006.61
2017-04-15T07:35:24.011Z,1006.62
2017-04-15T07:36:24.043Z,1006.63
2017-04-15T07:37:24.072Z,1006.6
2017-04-15T07:38:24.104Z,1006.69
2017-04-15T07:39:24.130Z,1006.65
2017-04-15T07:40:24.159Z,1006.7
2017-04-15T07:41:24.192Z,1006.68
2017-04-15T07:42:24.222Z,1006.71
2017-04-15T07:43:24.254Z,1006.7
2017-04-15T07:44:24.282Z,1006.71
2017-04-15T07:45:24.316Z,1006.73
2017-04-15T07:46:24.345Z,1006.72
2017-04-15T07:47:24.372Z,1006.73
2017-04-15T07:48:24.401Z,1006.7
2017-04-15T07:49:24.433Z,1006.66
2017-04-15T07:50:24.479Z,1006.59
2017-04-15T07:51:24.494Z,1006.56
2017-04-15T07:52:24.524Z,1006.61
2017-04-15T07:53:24.557Z,1006.57
2017-04-15T07:54:24.583Z,1006.59
2017-04-15T07:55:24.614Z,1006.61
2017-04-15T07:56:24.647Z,1006.58
2017-04-15T07:57:24.672Z,1006.57
2017-04-15T07:58:24.705Z,1006.53
2017-04-15T07:59:24.737Z,1006.55
2017-04-15T08:00:24.750Z,1006.52
2017-04-15T08:01:24.798Z,1006.57
2017-04-15T08:02:24.824Z,1006.55
2017-04-15T08:03:24.854Z,1006.54
2017-04-15T08:04:24.883Z,1006.51
2017-04-15T08:05:24.914Z,1006.5
2017-04-15T08:06:24.945Z,1006.51
2017-04-15T08:07:25.006Z,1006.48
2017-04-15T08:08:25.008Z,1006.45
2017-04-15T08:09:25.034Z,1006.49
2017-04-15T08:10:25.053Z,1006.51
2017-04-15T08:11:25.095Z,1006.58
2017-04-15T08:12:25.126Z,1006.56
2017-04-15T08:13:25.155Z,1006.57
2017-04-15T08:14:25.184Z,1006.57
2017-04-15T08:15:25.220Z,1006.58
2017-04-15T08:16:25.248Z,1006.57
2017-04-15T08:17:25.276Z,1006.58
2017-04-15T08:18:25.314Z,1006.58
2017-04-15T08:19:25.346Z,1006.57
2017-04-15T08:20:25.362Z,1006.55
2017-04-15T08:21:25.397Z,1006.58
2017-04-15T08:22:25.452Z,1006.54
2017-04-15T08:23:25.455Z,1006.55
2017-04-15T08:24:25.485Z,1006.63
2017-04-15T08:25:25.524Z,1006.69
2017-04-15T08:26:25.545Z,1006.61
2017-04-15T08:27:25.578Z,1006.5
2017-04-15T08:28:25.608Z,1006.52
2017-04-15T08:29:25.641Z,1006.58
2017-04-15T08:30:25.667Z,1006.6
2017-04-15T08:31:25.697Z,1006.58
2017-04-15T08:32:25.726Z,1006.61
2017-04-15T08:33:25.756Z,1006.66
2017-04-15T08:34:25.788Z,1006.68
2017-04-15T08:35:25.818Z,1006.61
2017-04-15T08:36:25.848Z,1006.63
2017-04-15T08:37:25.879Z,1006.59
2017-04-15T08:38:25.912Z,1006.51
2017-04-15T08:39:25.941Z,1006.55
2017-04-15T08:40:25.974Z,1006.52
2017-04-15T08:41:26.001Z,1006.51
2017-04-15T08:42:26.029Z,1006.52
2017-04-15T08:43:26.058Z,1006.54
2017-04-15T08:44:26.093Z,1006.48
2017-04-15T08:45:26.124Z,1006.55
2017-04-15T08:46:26.153Z,1006.48
2017-04-15T08:47:26.186Z,1006.44
2017-04-15T08:48:26.214Z,1006.45
2017-04-15T08:49:26.248Z,1006.39
2017-04-15T08:50:26.288Z,1006.48
2017-04-15T08:51:26.307Z,1006.47
2017-04-15T08:52:26.323Z,1006.5
2017-04-15T08:53:26.358Z,1006.51
2017-04-15T08:54:26.395Z,1006.46
2017-04-15T08:55:26.428Z,1006.49
2017-04-15T08:56:26.450Z,1006.44
2017-04-15T08:57:26.489Z,1006.47
2017-04-15T08:58:26.517Z,1006.42
2017-04-15T08:59:26.553Z,1006.4
2017-04-15T09:00:26.579Z,1006.32
2017-04-15T09:01:26.611Z,1006.44
2017-04-15T09:02:26.643Z,1006.39
2017-04-15T09:03:26.676Z,1006.37
2017-04-15T09:04:26.704Z,1006.37
2017-04-15T09:05:26.735Z,1006.31
2017-04-15T09:06:26.751Z,1006.4
2017-04-15T09:07:26.797Z,1006.44
2017-04-15T09:08:26.826Z,1006.42
2017-04-15T09:09:26.855Z,1006.43
2017-04-15T09:10:26.907Z,1006.43
2017-04-15T09:11:26.917Z,1006.4
2017-04-15T09:12:26.953Z,1006.35
2017-04-15T09:13:26.981Z,1006.3
2017-04-15T09:14:27.012Z,1006.35
2017-04-15T09:15:27.045Z,1006.29
2017-04-15T09:16:27.073Z,1006.28
2017-04-15T09:17:27.106Z,1006.33
2017-04-15T09:18:27.139Z,1006.29
2017-04-15T09:19:27.170Z,1006.26
2017-04-15T09:20:27.198Z,1006.31
2017-04-15T09:21:27.229Z,1006.27
2017-04-15T09:22:27.258Z,1006.25
2017-04-15T09:23:27.290Z,1006.23
2017-04-15T09:24:27.321Z,1006.22
2017-04-15T09:25:27.353Z,1006.23
2017-04-15T09:26:27.383Z,1006.27
2017-04-15T09:27:27.419Z,1006.3
2017-04-15T09:28:27.448Z,1006.28
2017-04-15T09:29:27.478Z,1006.31
2017-04-15T09:30:27.506Z,1006.27
2017-04-15T09:31:27.540Z,1006.32
2017-04-15T09:32:27.571Z,1006.27
2017-04-15T09:33:27.604Z,1006.21
2017-04-15T09:34:27.627Z,1006.19
2017-04-15T09:35:27.658Z,1006.23
2017-04-15T09:36:27.697Z,1006.17
2017-04-15T09:37:27.724Z,1006.18
2017-04-15T09:38:27.755Z,1006.22
2017-04-15T09:39:27.785Z,1006.24
2017-04-15T09:40:27.801Z,1006.2
2017-04-15T09:41:27.846Z,1006.22
2017-04-15T09:42:27.862Z,1006.33
2017-04-15T09:43:27.909Z,1006.27
2017-04-15T09:44:27.941Z,1006.25
2017-04-15T09:45:27.966Z,1006.21
2017-04-15T09:46:28.001Z,1006.22
2017-04-15T09:47:28.034Z,1006.2
2017-04-15T09:48:28.063Z,1006.13
2017-04-15T09:49:28.094Z,1006.22
2017-04-15T09:50:28.123Z,1006.17
2017-04-15T09:51:28.154Z,1006.17
2017-04-15T09:52:28.183Z,1006.21
2017-04-15T09:53:28.216Z,1006.22
2017-04-15T09:54:28.247Z,1006.19
2017-04-15T09:55:28.275Z,1006.14
2017-04-15T09:56:28.308Z,1006.07
2017-04-15T09:57:28.342Z,1006.11
2017-04-15T09:58:28.372Z,1006.14
2017-04-15T09:59:28.401Z,1006.09
2017-04-15T10:00:28.468Z,1006.07
2017-04-15T10:01:28.464Z,1006.12
2017-04-15T10:02:28.492Z,1006.12
2017-04-15T10:03:28.524Z,1006.08
2017-04-15T10:04:28.554Z,1006.07
2017-04-15T10:05:28.582Z,1006.09
2017-04-15T10:06:28.616Z,1006
2017-04-15T10:07:28.651Z,1006.07
2017-04-15T10:08:28.664Z,1005.97
2017-04-15T10:09:28.708Z,1005.98
2017-04-15T10:10:28.739Z,1005.97
2017-04-15T10:11:28.775Z,1006
2017-04-15T10:12:28.799Z,1006
2017-04-15T10:13:28.832Z,1006.01
2017-04-15T10:14:28.864Z,1005.93
2017-04-15T10:15:28.993Z,1005.99
2017-04-15T10:16:28.923Z,1005.99
2017-04-15T10:17:28.957Z,1006
2017-04-15T10:18:28.988Z,1005.98
2017-04-15T10:19:29.018Z,1006.01
2017-04-15T10:20:29.061Z,1005.9
2017-04-15T10:21:29.077Z,1005.9
2017-04-15T10:22:29.113Z,1005.94
2017-04-15T10:23:29.136Z,1005.91
2017-04-15T10:24:29.182Z,1005.88
2017-04-15T10:25:29.201Z,1005.84
2017-04-15T10:26:29.229Z,1005.87
2017-04-15T10:27:29.260Z,1005.84
2017-04-15T10:28:29.294Z,1005.82
2017-04-15T10:29:29.324Z,1005.83
2017-04-15T10:30:29.356Z,1005.81
2017-04-15T10:31:29.387Z,1005.86
2017-04-15T10:32:29.423Z,1005.77
2017-04-15T10:33:29.435Z,1005.79
2017-04-15T10:34:29.491Z,1005.77
2017-04-15T10:35:29.516Z,1005.74
2017-04-15T10:36:29.543Z,1005.73
2017-04-15T10:37:29.586Z,1005.7
2017-04-15T10:38:29.603Z,1005.74
2017-04-15T10:39:29.838Z,1005.74
2017-04-15T10:40:29.657Z,1005.76
2017-04-15T10:41:29.708Z,1005.77
2017-04-15T10:42:29.725Z,1005.73
2017-04-15T10:43:29.960Z,1005.86
2017-04-15T10:44:29.788Z,1005.79
2017-04-15T10:45:29.828Z,1005.83
2017-04-15T10:46:29.848Z,1005.69
2017-04-15T10:47:29.869Z,1005.74
2017-04-15T10:48:29.916Z,1005.69
2017-04-15T10:49:29.954Z,1005.79
2017-04-15T10:50:29.981Z,1005.78
2017-04-15T10:51:29.997Z,1005.73
2017-04-15T10:52:30.040Z,1005.68
2017-04-15T10:53:30.062Z,1005.7
2017-04-15T10:54:30.111Z,1005.71
2017-04-15T10:55:30.163Z,1005.63
2017-04-15T10:56:30.173Z,1005.63
2017-04-15T10:57:30.204Z,1005.61
2017-04-15T10:58:30.219Z,1005.6
2017-04-15T10:59:30.270Z,1005.6
2017-04-15T11:00:30.296Z,1005.66
2017-04-15T11:01:30.318Z,1005.69
2017-04-15T11:02:30.353Z,1005.68
2017-04-15T11:03:30.398Z,1005.62
2017-04-15T11:04:30.418Z,1005.64
2017-04-15T11:05:30.457Z,1005.61
2017-04-15T11:06:30.487Z,1005.61
2017-04-15T11:07:30.517Z,1005.58
2017-04-15T11:08:30.546Z,1005.56
2017-04-15T11:09:30.566Z,1005.6
2017-04-15T11:10:30.612Z,1005.54
2017-04-15T11:11:30.645Z,1005.58
2017-04-15T11:12:30.669Z,1005.63
2017-04-15T11:13:30.700Z,1005.6
2017-04-15T11:14:30.731Z,1005.63
2017-04-15T11:15:30.757Z,1005.54
2017-04-15T11:16:30.784Z,1005.59
2017-04-15T11:17:30.809Z,1005.55
2017-04-15T11:18:30.864Z,1005.61
2017-04-15T11:19:30.891Z,1005.56
2017-04-15T11:20:30.922Z,1005.43
2017-04-15T11:21:30.949Z,1005.49
2017-04-15T11:22:30.967Z,1005.49
2017-04-15T11:23:30.993Z,1005.48
2017-04-15T11:24:31.038Z,1005.46
2017-04-15T11:25:31.073Z,1005.57
2017-04-15T11:26:31.089Z,1005.55
2017-04-15T11:27:31.118Z,1005.48
2017-04-15T11:28:31.162Z,1005.49
2017-04-15T11:29:31.200Z,1005.5
2017-04-15T11:30:31.228Z,1005.49
2017-04-15T11:31:31.257Z,1005.49
2017-04-15T11:32:31.286Z,1005.52
2017-04-15T11:33:31.318Z,1005.51
2017-04-15T11:34:31.551Z,1005.48
2017-04-15T11:35:31.371Z,1005.51
2017-04-15T11:36:31.446Z,1005.55
2017-04-15T11:37:31.427Z,1005.48
2017-04-15T11:38:31.473Z,1005.43
2017-04-15T11:39:31.501Z,1005.47
2017-04-15T11:40:31.534Z,1005.47
2017-04-15T11:41:31.565Z,1005.45
2017-04-15T11:42:31.595Z,1005.5
2017-04-15T11:43:31.625Z,1005.51
2017-04-15T11:44:31.645Z,1005.5
2017-04-15T11:45:31.668Z,1005.48
2017-04-15T11:46:31.718Z,1005.54
2017-04-15T11:47:31.750Z,1005.46
2017-04-15T11:48:31.774Z,1005.49
2017-04-15T11:49:31.817Z,1005.46
2017-04-15T11:50:31.834Z,1005.39
2017-04-15T11:51:31.968Z,1005.39
2017-04-15T11:52:31.899Z,1005.41
2017-04-15T11:53:31.935Z,1005.35
2017-04-15T11:54:31.961Z,1005.43
2017-04-15T11:55:31.990Z,1005.43
2017-04-15T11:56:32.022Z,1005.42
2017-04-15T11:57:32.052Z,1005.42
2017-04-15T11:58:32.083Z,1005.39
2017-04-15T11:59:32.114Z,1005.39
2017-04-15T12:00:32.158Z,1005.4
2017-04-15T12:01:32.175Z,1005.39
2017-04-15T12:02:32.203Z,1005.39
2017-04-15T12:03:32.245Z,1005.32
2017-04-15T12:04:32.272Z,1005.39
2017-04-15T12:05:32.299Z,1005.39
2017-04-15T12:06:32.330Z,1005.32
2017-04-15T12:07:32.356Z,1005.32
2017-04-15T12:08:32.379Z,1005.29